Time;durP1;ratioP1;P1;durP2;ratioP2;P2;SDS_P1;SDS_P2;PMS_P1;PMS_P2;Temp;Humidity;BMP_temperature;BMP_pressure;BME280_temperature;BME280_humidity;BME280_pressure;Samples;Min_cycle;Max_cycle;Signal;HPM_P1;HPM_P2
2021/12/21 00:01:07;;;;;;;;;;;-2.20;99.90;;;;;;5054035;28;20368;-63
2021/12/21 00:03:33;;;;;;;;;;;-3.00;99.90;;;;;;5054637;28;19931;-64
2021/12/21 00:05:58;;;;;;;;;;;-2.70;99.90;;;;;;5054243;28;19965;-64
2021/12/21 00:08:24;;;;;;;;;;;-2.20;99.90;;;;;;5054063;28;20004;-62
2021/12/21 00:10:49;;;;;;;;;;;-3.10;99.90;;;;;;5035809;28;19931;-63
2021/12/21 00:13:35;;;;;;;;;;;-1.70;99.90;;;;;;5053143;28;20373;-64
2021/12/21 00:23:33;;;;;;;;;;;-2.20;99.90;;;;;;5053954;28;19936;-64
2021/12/21 00:26:00;;;;;;;;;;;-2.60;99.90;;;;;;5053356;28;19913;-63
2021/12/21 00:28:26;;;;;;;;;;;-2.70;99.90;;;;;;5053635;28;19959;-63
2021/12/21 00:30:52;;;;;;;;;;;-1.60;99.90;;;;;;5053389;28;20410;-63
2021/12/21 00:33:18;;;;;;;;;;;-2.00;99.90;;;;;;5053886;28;19905;-63
2021/12/21 00:35:44;;;;;;;;;;;-2.00;99.90;;;;;;5053536;28;20063;-62
2021/12/21 00:38:10;;;;;;;;;;;-2.00;99.90;;;;;;5053530;28;19909;-62
2021/12/21 00:40:35;;;;;;;;;;;-3.50;99.90;;;;;;5035424;28;19909;-61
2021/12/21 00:43:01;;;;;;;;;;;-1.90;99.90;;;;;;5053927;28;20367;-61
2021/12/21 00:45:27;;;;;;;;;;;-1.40;99.90;;;;;;5053425;28;19909;-60
2021/12/21 00:47:52;;;;;;;;;;;-2.70;99.90;;;;;;5053439;28;19908;-62
2021/12/21 00:50:19;;;;;;;;;;;-2.50;99.90;;;;;;5052920;28;19915;-62
2021/12/21 00:52:46;;;;;;;;;;;-2.90;99.90;;;;;;5053406;28;19919;-62
2021/12/21 00:55:11;;;;;;;;;;;-2.90;99.90;;;;;;5053192;28;19916;-62
2021/12/21 00:57:37;;;;;;;;;;;-2.10;99.90;;;;;;5053465;28;20290;-63
2021/12/21 01:00:04;;;;;;;;;;;-2.10;99.90;;;;;;5034674;28;19958;-62
2021/12/21 01:02:30;;;;;;;;;;;-2.50;99.90;;;;;;5053479;28;20449;-62
2021/12/21 01:04:57;;;;;;;;;;;-3.00;99.90;;;;;;5035396;28;20003;-62
2021/12/21 01:07:30;;;;;;;;;;;-3.70;99.90;;;;;;5053181;28;20008;-64
2021/12/21 01:17:51;;;;;;;;;;;-2.20;99.90;;;;;;5052757;28;19943;-64
2021/12/21 01:28:16;;;;;;;;;;;-3.70;99.90;;;;;;5052194;28;19918;-64
2021/12/21 01:34:13;;;;;;;;;;;-2.60;99.90;;;;;;5052950;28;19950;-63
2021/12/21 01:36:02;;;;;;;;;;;-3.10;99.90;;;;;;5041784;28;20286;-64
2021/12/21 01:38:39;;;;;;;;;;;;;;;;;;5051705;28;19913;-64
2021/12/21 01:43:58;;;;;;;;;;;-2.20;99.90;;;;;;5052410;28;19988;-63
2021/12/21 01:51:51;;;;;;;;;;;-1.90;99.90;;;;;;5052898;28;20008;-62
2021/12/21 01:54:17;;;;;;;;;;;-3.00;99.90;;;;;;5049282;28;20374;-63
2021/12/21 01:56:42;;;;;;;;;;;-2.20;99.90;;;;;;5042267;28;19909;-64
2021/12/21 01:59:09;;;;;;;;;;;;;;;;;;5047213;28;19913;-64
2021/12/21 02:01:35;;;;;;;;;;;-2.50;99.90;;;;;;5051337;28;20313;-64
2021/12/21 02:04:01;;;;;;;;;;;-3.10;99.90;;;;;;5043284;28;19944;-62
2021/12/21 02:06:27;;;;;;;;;;;-3.00;99.90;;;;;;5032473;28;19983;-64
2021/12/21 02:08:53;;;;;;;;;;;-2.80;99.90;;;;;;5034666;28;19944;-66
2021/12/21 02:11:19;;;;;;;;;;;-2.40;99.90;;;;;;5043039;28;19992;-65
2021/12/21 02:13:48;;;;;;;;;;;-3.60;99.90;;;;;;5041533;28;19913;-64
2021/12/21 02:16:21;;;;;;;;;;;-3.00;99.90;;;;;;5036478;28;19913;-63
2021/12/21 02:18:53;;;;;;;;;;;-3.10;99.90;;;;;;5032641;28;19906;-64
2021/12/21 02:21:36;;;;;;;;;;;-2.30;99.90;;;;;;5031923;28;20285;-64
2021/12/21 02:24:07;;;;;;;;;;;-3.10;99.90;;;;;;5033365;28;19913;-64
2021/12/21 02:26:40;;;;;;;;;;;-2.70;99.90;;;;;;5051277;28;20433;-64
2021/12/21 02:29:17;;;;;;;;;;;-2.60;99.90;;;;;;5051549;28;19904;-63
2021/12/21 02:31:44;;;;;;;;;;;-4.00;99.90;;;;;;5051942;28;19912;-63
2021/12/21 02:34:09;;;;;;;;;;;-3.70;99.90;;;;;;5052042;28;19912;-69
2021/12/21 02:36:35;;;;;;;;;;;-2.80;99.90;;;;;;5041494;28;19909;-69
2021/12/21 02:39:02;;;;;;;;;;;-3.20;99.90;;;;;;5040426;28;19908;-69
2021/12/21 02:41:28;;;;;;;;;;;-2.20;99.90;;;;;;5041285;28;19920;-68
2021/12/21 02:43:55;;;;;;;;;;;-2.50;99.90;;;;;;5036281;28;19913;-69
2021/12/21 02:46:22;;;;;;;;;;;-2.70;99.90;;;;;;5040820;28;19923;-69
2021/12/21 02:48:48;;;;;;;;;;;-3.20;99.90;;;;;;5039263;28;20418;-68
2021/12/21 02:51:13;;;;;;;;;;;-3.10;99.90;;;;;;5044916;28;19916;-68
2021/12/21 02:53:39;;;;;;;;;;;-1.80;99.90;;;;;;5044653;28;19913;-67
2021/12/21 02:56:05;;;;;;;;;;;;;;;;;;5044734;28;19917;-68
2021/12/21 02:58:30;;;;;;;;;;;-2.20;99.90;;;;;;5044933;28;19904;-67
2021/12/21 03:00:56;;;;;;;;;;;-2.50;99.90;;;;;;5025995;28;19909;-67
2021/12/21 03:03:22;;;;;;;;;;;-3.40;99.90;;;;;;5043513;28;19941;-67
2021/12/21 03:05:52;;;;;;;;;;;-3.20;99.90;;;;;;5044809;28;19967;-66
2021/12/21 03:08:24;;;;;;;;;;;-2.30;99.90;;;;;;5043747;28;20040;-67
2021/12/21 03:11:36;;;;;;;;;;;-2.80;99.90;;;;;;5033122;28;19909;-64
2021/12/21 03:16:27;;;;;;;;;;;-3.30;99.90;;;;;;5035313;28;19916;-67
2021/12/21 03:18:55;;;;;;;;;;;;;;;;;;5034780;28;19909;-64
2021/12/21 03:21:21;;;;;;;;;;;-2.90;99.90;;;;;;5035189;28;19959;-64
2021/12/21 03:23:46;;;;;;;;;;;-3.00;99.90;;;;;;5035109;28;19916;-64
2021/12/21 03:26:12;;;;;;;;;;;-3.60;99.90;;;;;;5053610;28;20045;-63
2021/12/21 03:28:38;;;;;;;;;;;-2.20;99.90;;;;;;5054590;28;19940;-64
2021/12/21 03:31:03;;;;;;;;;;;-3.50;99.90;;;;;;5054525;28;19913;-65
2021/12/21 03:33:29;;;;;;;;;;;-1.80;99.90;;;;;;5055231;28;19912;-64
2021/12/21 03:35:54;;;;;;;;;;;-2.20;99.90;;;;;;5054889;28;20278;-63
2021/12/21 03:38:20;;;;;;;;;;;;;;;;;;5054482;28;20382;-65
2021/12/21 03:40:46;;;;;;;;;;;-2.80;99.90;;;;;;5054152;28;20283;-64
2021/12/21 03:43:12;;;;;;;;;;;-3.90;99.90;;;;;;5054608;28;20003;-64
2021/12/21 03:45:43;;;;;;;;;;;-2.60;99.90;;;;;;5054248;28;19908;-65
2021/12/21 03:48:13;;;;;;;;;;;-2.90;99.90;;;;;;5054515;28;19909;-64
2021/12/21 03:50:39;;;;;;;;;;;-3.20;99.90;;;;;;5054296;28;19913;-64
2021/12/21 03:53:05;;;;;;;;;;;;;;;;;;5054617;28;19911;-64
2021/12/21 03:55:30;;;;;;;;;;;-2.40;99.90;;;;;;5054194;28;19905;-64
2021/12/21 03:57:56;;;;;;;;;;;-3.50;99.90;;;;;;5054224;28;19927;-64
2021/12/21 04:00:23;;;;;;;;;;;-3.30;99.90;;;;;;5053489;28;19940;-65
2021/12/21 04:02:49;;;;;;;;;;;-3.50;99.90;;;;;;5054279;28;20445;-64
2021/12/21 04:05:15;;;;;;;;;;;-2.30;99.90;;;;;;5054348;28;20011;-64
2021/12/21 04:07:41;;;;;;;;;;;-1.90;99.90;;;;;;5054164;28;19908;-65
2021/12/21 04:10:07;;;;;;;;;;;-3.70;99.90;;;;;;5053526;28;19909;-64
2021/12/21 04:12:34;;;;;;;;;;;;;;;;;;5053669;28;19905;-65
2021/12/21 04:15:02;;;;;;;;;;;-2.70;99.90;;;;;;5054107;28;19951;-63
2021/12/21 04:17:27;;;;;;;;;;;-3.70;99.90;;;;;;5054087;28;20355;-64
2021/12/21 04:19:53;;;;;;;;;;;-2.10;99.90;;;;;;5053549;28;19916;-64
2021/12/21 04:22:19;;;;;;;;;;;-3.60;99.90;;;;;;5054169;28;19916;-64
2021/12/21 04:24:45;;;;;;;;;;;-2.80;99.90;;;;;;5036008;28;19908;-64
2021/12/21 04:27:10;;;;;;;;;;;-2.00;99.90;;;;;;5053788;28;19923;-64
2021/12/21 04:29:36;;;;;;;;;;;-2.40;99.90;;;;;;5053270;28;19912;-63
2021/12/21 04:32:01;;;;;;;;;;;-3.90;99.90;;;;;;5053924;28;19909;-64
2021/12/21 04:34:27;;;;;;;;;;;-2.60;99.90;;;;;;5053841;28;19912;-64
2021/12/21 04:36:53;;;;;;;;;;;-2.50;99.90;;;;;;5053569;28;20340;-63
2021/12/21 04:39:40;;;;;;;;;;;-3.20;99.90;;;;;;5052963;28;19946;-64
2021/12/21 04:42:06;;;;;;;;;;;-3.20;99.90;;;;;;5053688;28;19909;-64
2021/12/21 04:44:32;;;;;;;;;;;-3.50;99.90;;;;;;5053716;28;19995;-64
2021/12/21 04:46:57;;;;;;;;;;;-3.00;99.90;;;;;;5053100;28;19904;-64
2021/12/21 04:49:23;;;;;;;;;;;-3.90;99.90;;;;;;5052892;28;19909;-64
2021/12/21 04:51:48;;;;;;;;;;;-3.20;99.90;;;;;;5053482;28;19919;-64
2021/12/21 04:54:14;;;;;;;;;;;;;;;;;;5053297;28;19909;-64
2021/12/21 04:56:40;;;;;;;;;;;-2.50;99.90;;;;;;5052239;28;19916;-64
2021/12/21 04:59:06;;;;;;;;;;;-2.30;99.90;;;;;;5043943;28;19908;-64
2021/12/21 05:01:32;;;;;;;;;;;-3.10;99.90;;;;;;5039457;28;19959;-65
2021/12/21 05:03:57;;;;;;;;;;;-2.90;99.90;;;;;;5044789;28;19963;-65
2021/12/21 05:06:23;;;;;;;;;;;-3.60;99.90;;;;;;5044732;28;20305;-64
2021/12/21 05:09:04;;;;;;;;;;;-4.00;99.90;;;;;;5052848;28;20418;-64
2021/12/21 05:11:33;;;;;;;;;;;-3.20;99.90;;;;;;5052612;28;19912;-64
2021/12/21 05:13:59;;;;;;;;;;;-3.10;99.90;;;;;;5053262;28;19912;-64
2021/12/21 05:16:24;;;;;;;;;;;-3.50;99.90;;;;;;5053263;28;19919;-65
2021/12/21 05:18:50;;;;;;;;;;;-3.10;99.90;;;;;;5053008;28;19908;-65
2021/12/21 05:21:15;;;;;;;;;;;-3.60;99.90;;;;;;5052453;28;19915;-65
2021/12/21 05:23:41;;;;;;;;;;;-3.00;99.90;;;;;;5035100;28;19912;-65
2021/12/21 05:26:06;;;;;;;;;;;-4.90;99.90;;;;;;5034489;28;19916;-65
2021/12/21 05:28:32;;;;;;;;;;;-3.20;99.90;;;;;;5053335;28;19913;-65
2021/12/21 05:30:57;;;;;;;;;;;-3.30;99.90;;;;;;5053631;28;19937;-65
2021/12/21 05:33:23;;;;;;;;;;;-3.90;99.90;;;;;;5055531;28;19911;-65
2021/12/21 05:35:48;;;;;;;;;;;-2.80;99.90;;;;;;5056602;28;20382;-65
2021/12/21 05:38:18;;;;;;;;;;;-2.80;99.90;;;;;;5057421;28;20031;-64
2021/12/21 05:40:46;;;;;;;;;;;-2.40;99.90;;;;;;5057619;28;19916;-62
2021/12/21 05:43:12;;;;;;;;;;;-2.80;99.90;;;;;;5056025;28;19915;-61
2021/12/21 05:45:38;;;;;;;;;;;-4.10;99.90;;;;;;5054817;28;20277;-68
2021/12/21 05:48:04;;;;;;;;;;;-2.70;99.90;;;;;;5038777;28;19913;-67
2021/12/21 05:50:30;;;;;;;;;;;-2.20;99.90;;;;;;5052548;28;19948;-66
2021/12/21 05:52:55;;;;;;;;;;;-2.90;99.90;;;;;;5042857;28;19975;-65
2021/12/21 05:55:21;;;;;;;;;;;-3.60;99.90;;;;;;5052417;28;19904;-64
2021/12/21 05:57:47;;;;;;;;;;;-3.60;99.90;;;;;;5022939;28;19994;-66
2021/12/21 06:00:14;;;;;;;;;;;-3.10;99.90;;;;;;5040392;28;19932;-66
2021/12/21 06:02:40;;;;;;;;;;;-3.30;99.90;;;;;;5032564;28;19909;-66
2021/12/21 06:05:05;;;;;;;;;;;-2.20;99.90;;;;;;5032345;28;19964;-67
2021/12/21 06:07:32;;;;;;;;;;;-3.20;99.90;;;;;;5032163;28;19905;-66
2021/12/21 06:09:58;;;;;;;;;;;-3.00;99.90;;;;;;5031474;28;19913;-66
2021/12/21 06:25:56;;;;;;;;;;;-4.30;99.90;;;;;;5051349;28;19943;-67
2021/12/21 06:28:22;;;;;;;;;;;-3.50;99.90;;;;;;5051881;28;19924;-67
2021/12/21 06:30:48;;;;;;;;;;;-3.50;99.90;;;;;;5051898;28;19912;-67
2021/12/21 06:33:14;;;;;;;;;;;-3.50;99.90;;;;;;5052236;28;19952;-67
2021/12/21 06:35:39;;;;;;;;;;;-3.70;99.90;;;;;;5052002;28;19956;-68
2021/12/21 06:38:05;;;;;;;;;;;-3.60;99.90;;;;;;5033734;28;19908;-68
2021/12/21 06:40:31;;;;;;;;;;;-3.10;99.90;;;;;;5051828;28;20436;-68
2021/12/21 06:43:00;;;;;;;;;;;-3.80;99.90;;;;;;5035133;28;19906;-65
2021/12/21 06:45:30;;;;;;;;;;;-3.70;99.90;;;;;;5045569;28;19913;-66
2021/12/21 06:53:25;;;;;;;;;;;-3.20;99.90;;;;;;5052217;28;20328;-68
2021/12/21 06:55:50;;;;;;;;;;;-3.00;99.90;;;;;;5051932;28;19940;-68
2021/12/21 06:58:16;;;;;;;;;;;-4.20;99.90;;;;;;5051326;28;19916;-74
2021/12/21 07:00:42;;;;;;;;;;;-4.00;99.90;;;;;;5051763;28;20385;-68
2021/12/21 07:03:07;;;;;;;;;;;-3.30;99.90;;;;;;5052129;28;19966;-68
2021/12/21 07:05:33;;;;;;;;;;;-4.40;99.90;;;;;;5052024;28;20346;-69
2021/12/21 07:07:59;;;;;;;;;;;-3.50;99.90;;;;;;5052065;28;19920;-68
2021/12/21 07:10:27;;;;;;;;;;;-4.00;99.90;;;;;;5051411;28;20371;-69
2021/12/21 07:18:29;;;;;;;;;;;-4.60;99.90;;;;;;5051836;28;19916;-69
2021/12/21 07:20:55;;;;;;;;;;;-4.10;99.90;;;;;;5051925;28;19948;-69
2021/12/21 07:23:21;;;;;;;;;;;-4.80;99.90;;;;;;5052471;28;20003;-69
2021/12/21 07:25:47;;;;;;;;;;;-4.80;99.90;;;;;;5067237;28;19920;-70
2021/12/21 07:28:13;;;;;;;;;;;-4.50;99.90;;;;;;5073951;28;19928;-69
2021/12/21 07:30:38;;;;;;;;;;;-5.30;99.90;;;;;;5072676;28;20003;-69
2021/12/21 07:33:04;;;;;;;;;;;-4.30;99.90;;;;;;5070707;28;19912;-69
2021/12/21 07:35:29;;;;;;;;;;;-4.80;99.90;;;;;;5037306;28;19915;-69
2021/12/21 07:37:55;;;;;;;;;;;-4.80;99.90;;;;;;5058100;28;19905;-69
2021/12/21 07:40:20;;;;;;;;;;;-5.10;99.90;;;;;;5071153;28;19916;-69
2021/12/21 07:42:46;;;;;;;;;;;-4.60;99.90;;;;;;5073831;28;20354;-69
2021/12/21 07:45:12;;;;;;;;;;;-4.10;99.90;;;;;;5064540;28;20910;-69
2021/12/21 07:47:37;;;;;;;;;;;;;;;;;;5055370;28;19909;-69
2021/12/21 07:50:03;;;;;;;;;;;-4.40;99.90;;;;;;5055475;28;19905;-69
2021/12/21 07:52:29;;;;;;;;;;;-4.60;99.90;;;;;;5055750;28;19908;-69
2021/12/21 07:54:54;;;;;;;;;;;-4.00;99.90;;;;;;5038364;28;19917;-69
2021/12/21 07:57:20;;;;;;;;;;;-4.70;99.90;;;;;;5055716;28;19922;-69
2021/12/21 07:59:46;;;;;;;;;;;-4.40;99.90;;;;;;5048639;28;20421;-69
2021/12/21 08:02:12;;;;;;;;;;;;;;;;;;5060140;28;20109;-70
2021/12/21 08:04:38;;;;;;;;;;;-4.50;99.90;;;;;;5059930;28;19955;-69
2021/12/21 08:07:10;;;;;;;;;;;-4.70;99.90;;;;;;5054092;28;19954;-69
2021/12/21 08:09:40;;;;;;;;;;;-4.30;99.90;;;;;;5053896;28;20407;-68
2021/12/21 08:14:37;;;;;;;;;;;-4.60;99.90;;;;;;5055413;28;19908;-69
2021/12/21 08:17:03;;;;;;;;;;;-4.30;99.90;;;;;;5054754;28;19908;-69
2021/12/21 08:19:28;;;;;;;;;;;-4.10;99.90;;;;;;5054359;28;19913;-69
2021/12/21 08:21:54;;;;;;;;;;;-3.40;99.90;;;;;;5053723;28;19914;-69
2021/12/21 08:24:19;;;;;;;;;;;-4.20;99.90;;;;;;5054539;28;19932;-69
2021/12/21 08:26:45;;;;;;;;;;;-3.70;99.90;;;;;;5052459;28;20359;-69
2021/12/21 08:29:11;;;;;;;;;;;;;;;;;;5054185;28;19911;-70
2021/12/21 08:31:36;;;;;;;;;;;-4.60;99.90;;;;;;5049275;28;19963;-65
2021/12/21 08:34:02;;;;;;;;;;;-4.10;99.90;;;;;;5033681;28;19911;-67
2021/12/21 08:36:28;;;;;;;;;;;-3.50;99.90;;;;;;5033959;28;19924;-64
2021/12/21 08:38:54;;;;;;;;;;;-4.40;99.90;;;;;;5034690;28;19909;-65
2021/12/21 08:41:20;;;;;;;;;;;-3.60;99.90;;;;;;5047770;28;19940;-64
2021/12/21 08:43:46;;;;;;;;;;;-3.80;99.90;;;;;;5050043;28;19915;-65
2021/12/21 08:46:12;;;;;;;;;;;-4.40;99.90;;;;;;5053192;28;19916;-65
2021/12/21 08:48:38;;;;;;;;;;;-3.10;99.90;;;;;;5052789;28;20255;-66
2021/12/21 08:51:04;;;;;;;;;;;-3.90;99.90;;;;;;5053126;28;19932;-65
2021/12/21 08:53:30;;;;;;;;;;;-3.20;99.90;;;;;;5053699;28;19909;-65
2021/12/21 08:55:55;;;;;;;;;;;-2.70;99.90;;;;;;5053864;28;19912;-64
2021/12/21 08:58:21;;;;;;;;;;;-3.40;99.90;;;;;;5052994;28;19911;-65
2021/12/21 09:00:47;;;;;;;;;;;-3.80;99.90;;;;;;5052406;28;19916;-65
2021/12/21 09:03:12;;;;;;;;;;;-2.80;99.90;;;;;;5053303;28;19944;-65
2021/12/21 09:05:39;;;;;;;;;;;-3.40;99.90;;;;;;5039528;28;19913;-65
2021/12/21 09:08:05;;;;;;;;;;;-2.50;99.90;;;;;;5033313;28;19909;-65
2021/12/21 09:10:31;;;;;;;;;;;-1.80;99.90;;;;;;5030685;28;19916;-64
2021/12/21 09:12:57;;;;;;;;;;;-3.10;99.90;;;;;;5031021;28;19909;-64
2021/12/21 09:15:24;;;;;;;;;;;-1.70;99.90;;;;;;5032990;28;19905;-64
2021/12/21 09:17:50;;;;;;;;;;;-2.30;99.90;;;;;;5033195;28;19912;-66
2021/12/21 09:20:17;;;;;;;;;;;-2.40;99.90;;;;;;5032594;28;19905;-66
2021/12/21 09:22:43;;;;;;;;;;;-2.30;99.90;;;;;;5033266;28;19948;-67
2021/12/21 09:25:09;;;;;;;;;;;-1.10;99.90;;;;;;5042956;28;19966;-66
2021/12/21 09:27:35;;;;;;;;;;;-1.60;99.90;;;;;;5052596;28;19940;-65
2021/12/21 09:30:01;;;;;;;;;;;-0.30;99.90;;;;;;5052206;28;19904;-64
2021/12/21 09:32:26;;;;;;;;;;;-1.20;99.90;;;;;;5053292;28;19915;-66
2021/12/21 09:34:52;;;;;;;;;;;-1.40;99.90;;;;;;5052700;28;19916;-66
2021/12/21 09:37:20;;;;;;;;;;;-2.00;99.90;;;;;;5052481;28;19911;-66
2021/12/21 09:39:52;;;;;;;;;;;-0.60;99.90;;;;;;5051828;28;19948;-66
2021/12/21 09:42:20;;;;;;;;;;;0.50;99.90;;;;;;5034634;28;19995;-66
2021/12/21 09:44:46;;;;;;;;;;;1.00;99.90;;;;;;5052082;28;19948;-66
2021/12/21 09:47:11;;;;;;;;;;;2.20;99.90;;;;;;5053138;28;20259;-65
2021/12/21 09:49:38;;;;;;;;;;;3.50;99.90;;;;;;5052107;28;19970;-66
2021/12/21 09:52:04;;;;;;;;;;;3.70;99.90;;;;;;5052478;28;19908;-65
2021/12/21 09:54:32;;;;;;;;;;;4.80;99.90;;;;;;5052246;28;20270;-67
2021/12/21 09:56:57;;;;;;;;;;;5.70;99.90;;;;;;5051889;28;19905;-66
2021/12/21 09:59:23;;;;;;;;;;;5.30;99.90;;;;;;5051101;28;19916;-65
2021/12/21 10:01:49;;;;;;;;;;;4.30;99.90;;;;;;5052435;28;19916;-65
2021/12/21 10:04:14;;;;;;;;;;;3.10;99.90;;;;;;5052248;28;19915;-65
2021/12/21 10:06:48;;;;;;;;;;;2.70;99.90;;;;;;5045241;28;19913;-68
2021/12/21 10:09:21;;;;;;;;;;;4.00;99.90;;;;;;5032727;28;20007;-70
2021/12/21 10:11:48;;;;;;;;;;;3.90;99.90;;;;;;5043498;28;19905;-70
2021/12/21 10:14:17;;;;;;;;;;;3.30;99.90;;;;;;5038013;28;19905;-71
2021/12/21 10:16:44;;;;;;;;;;;2.60;99.90;;;;;;5014377;28;19905;-69
2021/12/21 10:19:22;;;;;;;;;;;2.60;99.90;;;;;;5031477;28;19921;-69
2021/12/21 10:21:47;;;;;;;;;;;1.90;99.90;;;;;;5032151;28;19959;-70
2021/12/21 10:24:23;;;;;;;;;;;3.00;99.90;;;;;;5046932;28;19913;-70
2021/12/21 10:26:50;;;;;;;;;;;3.70;99.90;;;;;;5040675;28;19917;-73
2021/12/21 10:29:16;;;;;;;;;;;4.70;99.90;;;;;;5049314;28;19944;-73
2021/12/21 10:31:44;;;;;;;;;;;3.20;99.90;;;;;;5047016;28;20385;-73
2021/12/21 10:34:11;;;;;;;;;;;3.60;99.90;;;;;;5043952;28;19905;-73
2021/12/21 10:36:40;;;;;;;;;;;2.90;99.90;;;;;;5037341;28;19916;-73
2021/12/21 10:39:06;;;;;;;;;;;3.90;99.90;;;;;;5043047;28;19924;-74
2021/12/21 10:41:39;;;;;;;;;;;3.90;99.90;;;;;;5052014;28;19908;-77
2021/12/21 10:44:06;;;;;;;;;;;4.20;99.90;;;;;;5034317;28;19944;-71
2021/12/21 10:46:33;;;;;;;;;;;4.40;99.90;;;;;;5051527;28;19995;-72
2021/12/21 10:49:04;;;;;;;;;;;6.20;99.90;;;;;;5051231;28;19912;-72
2021/12/21 10:51:30;;;;;;;;;;;6.00;99.90;;;;;;5033915;28;19905;-73
2021/12/21 10:53:55;;;;;;;;;;;5.10;99.90;;;;;;5051294;28;19966;-72
2021/12/21 10:56:21;;;;;;;;;;;5.90;99.90;;;;;;5040616;28;20355;-73
2021/12/21 10:58:47;;;;;;;;;;;7.70;99.90;;;;;;5045804;28;19916;-72
2021/12/21 11:01:19;;;;;;;;;;;7.90;99.90;;;;;;5045339;28;19919;-72
2021/12/21 11:03:50;;;;;;;;;;;8.80;99.90;;;;;;5047451;28;19920;-72
2021/12/21 11:06:18;;;;;;;;;;;8.40;99.30;;;;;;5041449;28;19909;-73
2021/12/21 11:08:45;;;;;;;;;;;7.90;98.00;;;;;;5046952;28;20385;-71
2021/12/21 11:11:29;;;;;;;;;;;8.40;99.60;;;;;;5053423;28;19905;-72
2021/12/21 11:14:04;;;;;;;;;;;9.30;99.00;;;;;;5061051;28;19912;-73
2021/12/21 11:16:38;;;;;;;;;;;8.00;99.80;;;;;;5052098;28;19908;-74
2021/12/21 11:19:04;;;;;;;;;;;7.60;99.90;;;;;;5043965;28;20276;-73
2021/12/21 11:21:30;;;;;;;;;;;8.60;99.50;;;;;;5029247;28;19904;-74
2021/12/21 11:23:56;;;;;;;;;;;9.70;97.20;;;;;;5051384;28;19905;-71
2021/12/21 11:26:22;;;;;;;;;;;11.50;96.20;;;;;;5054858;28;19917;-71
2021/12/21 11:28:49;;;;;;;;;;;11.20;96.30;;;;;;5049362;28;19912;-78
2021/12/21 11:31:17;;;;;;;;;;;;;;;;;;5050829;28;19909;-73
2021/12/21 11:33:44;;;;;;;;;;;8.40;98.00;;;;;;5044713;28;20307;-70
2021/12/21 11:38:56;;;;;;;;;;;8.00;99.90;;;;;;5052463;28;20321;-77
2021/12/21 11:41:23;;;;;;;;;;;9.60;99.10;;;;;;5055027;28;19909;-77
2021/12/21 11:44:14;;;;;;;;;;;10.50;97.50;;;;;;5055065;28;20141;-77
2021/12/21 11:46:52;;;;;;;;;;;10.10;96.30;;;;;;5051583;28;20281;-75
2021/12/21 11:49:34;;;;;;;;;;;10.60;96.50;;;;;;5054378;28;19904;-76
2021/12/21 11:52:29;;;;;;;;;;;11.20;95.60;;;;;;5054930;28;20386;-76
2021/12/21 11:55:04;;;;;;;;;;;11.80;94.60;;;;;;5041710;28;20270;-76
2021/12/21 11:57:41;;;;;;;;;;;12.20;93.60;;;;;;5053815;28;20400;-75
2021/12/21 12:00:06;;;;;;;;;;;12.40;93.20;;;;;;5045597;28;19912;-76
2021/12/21 12:02:33;;;;;;;;;;;12.60;92.40;;;;;;5043387;28;19955;-75
2021/12/21 12:04:59;;;;;;;;;;;12.40;92.60;;;;;;5034732;28;19916;-76
2021/12/21 12:07:24;;;;;;;;;;;12.30;92.50;;;;;;5016960;28;20017;-76
2021/12/21 12:10:08;;;;;;;;;;;11.10;92.80;;;;;;5033183;28;19966;-76
2021/12/21 12:12:34;;;;;;;;;;;11.00;94.00;;;;;;5034407;28;20343;-76
2021/12/21 12:15:00;;;;;;;;;;;11.50;94.30;;;;;;5034465;28;19948;-76
2021/12/21 12:17:30;;;;;;;;;;;10.20;94.80;;;;;;5034709;28;19905;-75
2021/12/21 12:20:07;;;;;;;;;;;10.20;96.20;;;;;;5033603;28;19905;-74
2021/12/21 12:22:34;;;;;;;;;;;7.60;99.90;;;;;;5034208;28;19913;-75
2021/12/21 12:24:59;;;;;;;;;;;6.80;99.90;;;;;;5043596;28;19909;-75
2021/12/21 12:27:27;;;;;;;;;;;6.20;99.90;;;;;;5054002;28;19923;-75
2021/12/21 12:30:00;;;;;;;;;;;6.80;99.90;;;;;;5034285;28;19931;-74
2021/12/21 12:32:37;;;;;;;;;;;8.20;99.90;;;;;;5047759;28;19909;-75
2021/12/21 12:35:04;;;;;;;;;;;8.80;99.90;;;;;;5054114;28;19927;-74
2021/12/21 12:37:30;;;;;;;;;;;7.80;99.90;;;;;;5054278;28;20327;-75
2021/12/21 12:40:00;;;;;;;;;;;8.70;99.90;;;;;;5053441;28;19950;-74
2021/12/21 12:42:26;;;;;;;;;;;8.80;99.80;;;;;;5054394;28;19928;-75
2021/12/21 12:45:22;;;;;;;;;;;9.80;98.80;;;;;;5053575;28;19959;-74
2021/12/21 12:47:49;;;;;;;;;;;10.40;97.30;;;;;;5037177;28;19912;-74
2021/12/21 12:50:18;;;;;;;;;;;11.50;96.50;;;;;;5035175;28;20400;-71
2021/12/21 12:52:51;;;;;;;;;;;10.80;97.70;;;;;;5051344;28;19908;-71
2021/12/21 12:55:17;;;;;;;;;;;10.30;96.30;;;;;;5040298;28;19970;-73
2021/12/21 12:57:51;;;;;;;;;;;10.50;97.40;;;;;;5033828;28;19913;-74
2021/12/21 13:00:28;;;;;;;;;;;10.60;96.10;;;;;;5053190;28;19909;-74
2021/12/21 13:03:08;;;;;;;;;;;10.90;95.40;;;;;;5064135;28;19919;-74
2021/12/21 13:05:38;;;;;;;;;;;12.20;93.80;;;;;;5072236;28;19908;-73
2021/12/21 13:08:06;;;;;;;;;;;12.50;92.60;;;;;;5069705;28;19905;-73
2021/12/21 13:10:32;;;;;;;;;;;12.70;92.00;;;;;;5062275;28;19980;-73
2021/12/21 13:12:57;;;;;;;;;;;13.00;91.80;;;;;;5035226;28;19948;-73
2021/12/21 13:15:33;;;;;;;;;;;9.70;93.20;;;;;;5034861;28;19905;-73
2021/12/21 13:18:00;;;;;;;;;;;11.20;94.20;;;;;;5051215;28;19939;-73
2021/12/21 13:20:25;;;;;;;;;;;11.70;93.40;;;;;;5050122;28;19976;-72
2021/12/21 13:22:51;;;;;;;;;;;12.40;92.10;;;;;;5042209;28;19963;-73
2021/12/21 13:25:17;;;;;;;;;;;13.40;91.10;;;;;;5037836;28;19913;-73
2021/12/21 13:27:43;;;;;;;;;;;13.50;91.50;;;;;;5034555;28;19917;-72
2021/12/21 13:30:09;;;;;;;;;;;12.50;90.50;;;;;;5050618;28;19919;-71
2021/12/21 13:32:34;;;;;;;;;;;12.70;91.00;;;;;;5052459;28;19908;-73
2021/12/21 13:35:01;;;;;;;;;;;12.20;90.70;;;;;;5052454;28;20256;-72
2021/12/21 13:37:29;;;;;;;;;;;11.70;90.60;;;;;;5052725;28;19958;-72
2021/12/21 13:39:57;;;;;;;;;;;11.90;90.50;;;;;;5052190;28;20342;-72
2021/12/21 13:42:24;;;;;;;;;;;12.90;89.30;;;;;;5052760;28;19912;-70
2021/12/21 13:44:55;;;;;;;;;;;12.60;89.00;;;;;;5052369;28;19919;-72
2021/12/21 13:47:21;;;;;;;;;;;12.70;90.50;;;;;;5034540;28;19916;-71
2021/12/21 13:49:54;;;;;;;;;;;12.40;90.90;;;;;;5033429;28;19909;-72
2021/12/21 13:52:20;;;;;;;;;;;12.70;90.10;;;;;;5034870;28;20035;-71
2021/12/21 13:54:45;;;;;;;;;;;12.00;90.00;;;;;;5034470;28;20011;-71
2021/12/21 13:57:14;;;;;;;;;;;10.10;90.00;;;;;;5052466;28;19909;-72
2021/12/21 13:59:40;;;;;;;;;;;12.20;89.90;;;;;;5051428;28;19905;-71
2021/12/21 14:02:07;;;;;;;;;;;11.60;89.40;;;;;;5052320;28;20011;-71
2021/12/21 14:04:47;;;;;;;;;;;12.10;90.40;;;;;;5052358;28;19979;-72
2021/12/21 14:07:13;;;;;;;;;;;11.80;90.80;;;;;;5052233;28;20272;-72
2021/12/21 14:09:38;;;;;;;;;;;10.90;91.10;;;;;;5051809;28;19916;-71
2021/12/21 14:12:04;;;;;;;;;;;9.90;92.20;;;;;;5051727;28;19912;-77
2021/12/21 14:14:34;;;;;;;;;;;10.40;93.50;;;;;;5031960;28;19913;-71
2021/12/21 14:17:00;;;;;;;;;;;9.50;92.90;;;;;;5032362;28;20051;-70
2021/12/21 14:19:25;;;;;;;;;;;9.30;93.60;;;;;;5014060;28;19909;-71
2021/12/21 14:21:55;;;;;;;;;;;10.10;93.40;;;;;;5032245;28;19916;-71
2021/12/21 14:24:21;;;;;;;;;;;9.90;92.70;;;;;;5032401;28;19962;-72
2021/12/21 14:26:52;;;;;;;;;;;10.00;93.60;;;;;;5026187;28;19917;-72
2021/12/21 14:29:19;;;;;;;;;;;;;;;;;;5052865;28;19951;-70
2021/12/21 14:31:54;;;;;;;;;;;8.90;95.10;;;;;;5066816;28;19972;-74
2021/12/21 14:34:27;;;;;;;;;;;8.30;96.70;;;;;;5049880;28;19908;-71
2021/12/21 14:36:53;;;;;;;;;;;6.10;97.20;;;;;;5053682;28;19924;-71
2021/12/21 14:39:20;;;;;;;;;;;5.20;97.80;;;;;;5043633;28;19920;-71
2021/12/21 14:41:46;;;;;;;;;;;;;;;;;;5043632;28;19909;-71
2021/12/21 14:44:13;;;;;;;;;;;6.10;99.90;;;;;;5047210;28;19916;-69
2021/12/21 14:46:51;;;;;;;;;;;5.70;99.90;;;;;;5055236;28;20469;-72
2021/12/21 14:49:22;;;;;;;;;;;4.50;99.90;;;;;;5055168;28;19954;-70
2021/12/21 14:51:50;;;;;;;;;;;5.30;99.90;;;;;;5055643;28;19909;-71
2021/12/21 14:54:23;;;;;;;;;;;4.50;99.90;;;;;;5055673;28;19916;-71
2021/12/21 14:56:49;;;;;;;;;;;5.00;99.90;;;;;;5054972;28;19909;-70
2021/12/21 14:59:15;;;;;;;;;;;3.70;99.90;;;;;;5052160;28;20008;-71
2021/12/21 15:01:42;;;;;;;;;;;4.60;99.90;;;;;;5051112;28;19917;-72
2021/12/21 15:04:14;;;;;;;;;;;4.40;99.90;;;;;;5054117;28;19909;-71
2021/12/21 15:06:40;;;;;;;;;;;;;;;;;;5046817;28;19913;-71
2021/12/21 15:09:06;;;;;;;;;;;3.90;99.90;;;;;;5053086;28;19920;-72
2021/12/21 15:11:31;;;;;;;;;;;4.00;99.90;;;;;;5054261;28;20359;-72
2021/12/21 15:13:57;;;;;;;;;;;3.50;99.90;;;;;;5043882;28;19909;-74
2021/12/21 15:16:22;;;;;;;;;;;4.10;99.90;;;;;;5037697;28;19962;-74
2021/12/21 15:18:48;;;;;;;;;;;4.50;99.90;;;;;;5035160;28;20513;-74
2021/12/21 15:21:14;;;;;;;;;;;3.40;99.90;;;;;;5045539;28;19917;-74
2021/12/21 15:23:40;;;;;;;;;;;3.50;99.90;;;;;;5051150;28;19909;-70
2021/12/21 15:26:05;;;;;;;;;;;5.20;99.90;;;;;;5054817;28;19917;-72
2021/12/21 15:28:31;;;;;;;;;;;3.30;99.90;;;;;;5028623;28;19912;-71
2021/12/21 15:30:56;;;;;;;;;;;4.00;99.90;;;;;;5054537;28;19905;-72
2021/12/21 15:33:22;;;;;;;;;;;3.00;99.90;;;;;;5050007;28;19916;-76
2021/12/21 15:35:47;;;;;;;;;;;2.60;99.90;;;;;;5055453;28;19915;-76